Hancock, Michigan
Current Conditions -  °F | °C
As of 5:53 PM on Wednesday 26 Nov 2014 (Local Time) from KCMX Reporting Station
Light Snow Light Snow  
Wind Chill:   Ceiling: 2900
Heat Index: 20°   Visibility: 2.5mi
Dew Point: 15°   Wind: 14mph
Humidity: 81%   Direction: 360°N
Pressure: 30.16"   Gusts: NA
Location:  47.13°N, 88.58°W
Report Text: KCMX 262253Z AUTO 36012KT 2 1/2SM -SN FEW012 OVC029 M07/M09 A3016 RMK AO2 SLP234 P0000 T10671094
Loading
Personal Weather Stations






























Interactive Weather Map New forecast layout! Learn more

10-Day Weather Forecast

Advertisements
Track Severe Weather on mobile